sensor_id;sensor_type;location;lat;lon;timestamp;temperature;humidity
23991;DHT22;12205;50.600;4.608;2024-02-14T00:02:25;8.40;99.90
23991;DHT22;12205;50.600;4.608;2024-02-14T00:04:53;8.40;99.90
23991;DHT22;12205;50.600;4.608;2024-02-14T00:07:21;8.40;99.90
23991;DHT22;12205;50.600;4.608;2024-02-14T00:09:48;8.40;99.90
23991;DHT22;12205;50.600;4.608;2024-02-14T00:12:15;8.40;99.90
23991;DHT22;12205;50.600;4.608;2024-02-14T00:14:42;8.40;99.90
23991;DHT22;12205;50.600;4.608;2024-02-14T00:17:09;8.40;99.90
23991;DHT22;12205;50.600;4.608;2024-02-14T00:19:36;8.40;99.90
23991;DHT22;12205;50.600;4.608;2024-02-14T00:22:04;8.30;99.90
23991;DHT22;12205;50.600;4.608;2024-02-14T00:24:31;8.30;99.90
23991;DHT22;12205;50.600;4.608;2024-02-14T00:26:59;8.30;99.90
23991;DHT22;12205;50.600;4.608;2024-02-14T00:29:26;8.40;99.90
23991;DHT22;12205;50.600;4.608;2024-02-14T00:31:53;8.30;99.90
23991;DHT22;12205;50.600;4.608;2024-02-14T00:34:20;8.40;99.90
23991;DHT22;12205;50.600;4.608;2024-02-14T00:36:47;8.40;99.90
23991;DHT22;12205;50.600;4.608;2024-02-14T00:39:15;8.50;99.90
23991;DHT22;12205;50.600;4.608;2024-02-14T00:41:42;8.50;99.90
23991;DHT22;12205;50.600;4.608;2024-02-14T00:44:09;8.50;99.90
23991;DHT22;12205;50.600;4.608;2024-02-14T00:46:36;8.50;99.90
23991;DHT22;12205;50.600;4.608;2024-02-14T00:49:03;8.50;99.90
23991;DHT22;12205;50.600;4.608;2024-02-14T00:51:30;8.60;99.90
23991;DHT22;12205;50.600;4.608;2024-02-14T00:53:57;8.60;99.90
23991;DHT22;12205;50.600;4.608;2024-02-14T00:56:25;8.60;99.90
23991;DHT22;12205;50.600;4.608;2024-02-14T00:58:52;8.60;99.90
23991;DHT22;12205;50.600;4.608;2024-02-14T01:01:19;8.70;99.90
23991;DHT22;12205;50.600;4.608;2024-02-14T01:03:47;8.70;99.90
23991;DHT22;12205;50.600;4.608;2024-02-14T01:06:14;8.70;99.90
23991;DHT22;12205;50.600;4.608;2024-02-14T01:08:41;8.70;99.90
23991;DHT22;12205;50.600;4.608;2024-02-14T01:11:09;8.70;99.90
23991;DHT22;12205;50.600;4.608;2024-02-14T01:13:37;8.80;99.90
23991;DHT22;12205;50.600;4.608;2024-02-14T01:16:05;8.80;99.90
23991;DHT22;12205;50.600;4.608;2024-02-14T01:18:31;8.80;99.90
23991;DHT22;12205;50.600;4.608;2024-02-14T01:20:58;8.80;99.90
23991;DHT22;12205;50.600;4.608;2024-02-14T01:23:26;8.70;99.90
23991;DHT22;12205;50.600;4.608;2024-02-14T01:25:53;8.60;99.90
23991;DHT22;12205;50.600;4.608;2024-02-14T01:28:21;8.60;99.90
23991;DHT22;12205;50.600;4.608;2024-02-14T01:30:49;8.50;99.90
23991;DHT22;12205;50.600;4.608;2024-02-14T01:33:16;8.50;99.90
23991;DHT22;12205;50.600;4.608;2024-02-14T01:35:43;8.40;99.90
23991;DHT22;12205;50.600;4.608;2024-02-14T01:38:10;8.40;99.90
23991;DHT22;12205;50.600;4.608;2024-02-14T01:40:38;8.40;99.90
23991;DHT22;12205;50.600;4.608;2024-02-14T01:43:05;8.40;99.90
23991;DHT22;12205;50.600;4.608;2024-02-14T01:45:32;8.40;99.90
23991;DHT22;12205;50.600;4.608;2024-02-14T01:48:00;8.40;99.90
23991;DHT22;12205;50.600;4.608;2024-02-14T01:50:28;8.40;99.90
23991;DHT22;12205;50.600;4.608;2024-02-14T01:52:57;8.40;99.90
23991;DHT22;12205;50.600;4.608;2024-02-14T01:55:25;8.50;99.90
23991;DHT22;12205;50.600;4.608;2024-02-14T01:57:54;8.50;99.90
23991;DHT22;12205;50.600;4.608;2024-02-14T02:00:21;8.50;99.90
23991;DHT22;12205;50.600;4.608;2024-02-14T02:02:49;8.50;99.90
23991;DHT22;12205;50.600;4.608;2024-02-14T02:05:20;8.40;99.90
23991;DHT22;12205;50.600;4.608;2024-02-14T02:07:47;8.40;99.90
23991;DHT22;12205;50.600;4.608;2024-02-14T02:10:15;8.40;99.90
23991;DHT22;12205;50.600;4.608;2024-02-14T02:12:42;8.30;99.90
23991;DHT22;12205;50.600;4.608;2024-02-14T02:15:09;8.40;99.90
23991;DHT22;12205;50.600;4.608;2024-02-14T02:17:39;8.40;99.90
23991;DHT22;12205;50.600;4.608;2024-02-14T02:20:07;8.30;99.90
23991;DHT22;12205;50.600;4.608;2024-02-14T02:22:36;8.30;99.90
23991;DHT22;12205;50.600;4.608;2024-02-14T02:25:05;8.30;99.90
23991;DHT22;12205;50.600;4.608;2024-02-14T02:27:33;8.40;99.90
23991;DHT22;12205;50.600;4.608;2024-02-14T02:30:04;8.30;99.90
23991;DHT22;12205;50.600;4.608;2024-02-14T02:32:31;8.40;99.90
23991;DHT22;12205;50.600;4.608;2024-02-14T02:34:58;8.40;99.90
23991;DHT22;12205;50.600;4.608;2024-02-14T02:37:25;8.40;99.90
23991;DHT22;12205;50.600;4.608;2024-02-14T02:39:54;8.40;99.90
23991;DHT22;12205;50.600;4.608;2024-02-14T02:42:22;8.40;99.90
23991;DHT22;12205;50.600;4.608;2024-02-14T02:44:50;8.50;99.90
23991;DHT22;12205;50.600;4.608;2024-02-14T02:47:17;8.50;99.90
23991;DHT22;12205;50.600;4.608;2024-02-14T02:49:44;8.50;99.90
23991;DHT22;12205;50.600;4.608;2024-02-14T02:52:11;8.60;99.90
23991;DHT22;12205;50.600;4.608;2024-02-14T02:54:39;8.60;99.90
23991;DHT22;12205;50.600;4.608;2024-02-14T02:57:06;8.60;99.90
23991;DHT22;12205;50.600;4.608;2024-02-14T02:59:36;8.60;99.90
23991;DHT22;12205;50.600;4.608;2024-02-14T03:02:03;8.60;99.90
23991;DHT22;12205;50.600;4.608;2024-02-14T03:04:35;8.70;99.90
23991;DHT22;12205;50.600;4.608;2024-02-14T03:07:02;8.70;99.90
23991;DHT22;12205;50.600;4.608;2024-02-14T03:09:34;8.70;99.90
23991;DHT22;12205;50.600;4.608;2024-02-14T03:12:01;8.70;99.90
23991;DHT22;12205;50.600;4.608;2024-02-14T03:14:29;8.80;99.90
23991;DHT22;12205;50.600;4.608;2024-02-14T03:16:59;8.80;99.90
23991;DHT22;12205;50.600;4.608;2024-02-14T03:19:28;8.70;99.90
23991;DHT22;12205;50.600;4.608;2024-02-14T03:21:55;8.80;99.90
23991;DHT22;12205;50.600;4.608;2024-02-14T03:24:22;8.80;99.90
23991;DHT22;12205;50.600;4.608;2024-02-14T03:26:51;8.90;99.90
23991;DHT22;12205;50.600;4.608;2024-02-14T03:29:19;8.80;99.90
23991;DHT22;12205;50.600;4.608;2024-02-14T03:31:46;8.80;99.90
23991;DHT22;12205;50.600;4.608;2024-02-14T03:34:14;8.70;99.90
23991;DHT22;12205;50.600;4.608;2024-02-14T03:36:41;8.70;99.90
23991;DHT22;12205;50.600;4.608;2024-02-14T03:39:08;8.70;99.90
23991;DHT22;12205;50.600;4.608;2024-02-14T03:41:36;8.70;99.90
23991;DHT22;12205;50.600;4.608;2024-02-14T03:44:03;8.70;99.90
23991;DHT22;12205;50.600;4.608;2024-02-14T03:46:32;8.70;99.90
23991;DHT22;12205;50.600;4.608;2024-02-14T03:49:00;8.80;99.90
23991;DHT22;12205;50.600;4.608;2024-02-14T03:51:29;8.80;99.90
23991;DHT22;12205;50.600;4.608;2024-02-14T03:53:56;8.80;99.90
23991;DHT22;12205;50.600;4.608;2024-02-14T03:56:23;8.80;99.90
23991;DHT22;12205;50.600;4.608;2024-02-14T03:58:50;8.90;99.90
23991;DHT22;12205;50.600;4.608;2024-02-14T04:01:17;8.80;99.90
23991;DHT22;12205;50.600;4.608;2024-02-14T04:03:46;8.80;99.90
23991;DHT22;12205;50.600;4.608;2024-02-14T04:06:14;8.80;99.90
23991;DHT22;12205;50.600;4.608;2024-02-14T04:08:43;8.80;99.90
23991;DHT22;12205;50.600;4.608;2024-02-14T04:11:10;8.80;99.90
23991;DHT22;12205;50.600;4.608;2024-02-14T04:13:39;8.90;99.90
23991;DHT22;12205;50.600;4.608;2024-02-14T04:16:06;8.80;99.90
23991;DHT22;12205;50.600;4.608;2024-02-14T04:18:34;8.90;99.90
23991;DHT22;12205;50.600;4.608;2024-02-14T04:21:00;8.90;99.90
23991;DHT22;12205;50.600;4.608;2024-02-14T04:23:29;8.90;99.90
23991;DHT22;12205;50.600;4.608;2024-02-14T04:25:58;8.90;99.90
23991;DHT22;12205;50.600;4.608;2024-02-14T04:28:25;8.90;99.90
23991;DHT22;12205;50.600;4.608;2024-02-14T04:30:52;8.90;99.90
23991;DHT22;12205;50.600;4.608;2024-02-14T04:33:21;9.00;99.90
23991;DHT22;12205;50.600;4.608;2024-02-14T04:35:48;9.00;99.90
23991;DHT22;12205;50.600;4.608;2024-02-14T04:38:15;9.00;99.90
23991;DHT22;12205;50.600;4.608;2024-02-14T04:40:42;9.00;99.90
23991;DHT22;12205;50.600;4.608;2024-02-14T04:43:10;9.00;99.90
23991;DHT22;12205;50.600;4.608;2024-02-14T04:45:37;9.00;99.90
23991;DHT22;12205;50.600;4.608;2024-02-14T04:48:05;9.00;99.90
23991;DHT22;12205;50.600;4.608;2024-02-14T04:50:33;9.00;99.90
23991;DHT22;12205;50.600;4.608;2024-02-14T04:53:00;9.00;99.90
23991;DHT22;12205;50.600;4.608;2024-02-14T04:55:27;9.00;99.90
23991;DHT22;12205;50.600;4.608;2024-02-14T04:57:54;9.00;99.90
23991;DHT22;12205;50.600;4.608;2024-02-14T05:00:22;9.00;99.90
23991;DHT22;12205;50.600;4.608;2024-02-14T05:02:49;9.00;99.90
23991;DHT22;12205;50.600;4.608;2024-02-14T05:05:16;9.00;99.90
23991;DHT22;12205;50.600;4.608;2024-02-14T05:07:44;8.90;99.90
23991;DHT22;12205;50.600;4.608;2024-02-14T05:10:12;8.90;99.90
23991;DHT22;12205;50.600;4.608;2024-02-14T05:12:40;9.00;99.90
23991;DHT22;12205;50.600;4.608;2024-02-14T05:15:07;8.90;99.90
23991;DHT22;12205;50.600;4.608;2024-02-14T05:17:36;8.90;99.90
23991;DHT22;12205;50.600;4.608;2024-02-14T05:20:04;9.00;99.90
23991;DHT22;12205;50.600;4.608;2024-02-14T05:22:35;8.90;99.90
23991;DHT22;12205;50.600;4.608;2024-02-14T05:25:02;9.00;99.90
23991;DHT22;12205;50.600;4.608;2024-02-14T05:27:29;9.00;99.90
23991;DHT22;12205;50.600;4.608;2024-02-14T05:29:56;9.00;99.90
23991;DHT22;12205;50.600;4.608;2024-02-14T05:32:23;9.00;99.90
23991;DHT22;12205;50.600;4.608;2024-02-14T05:34:52;9.00;99.90
23991;DHT22;12205;50.600;4.608;2024-02-14T05:37:20;9.00;99.90
23991;DHT22;12205;50.600;4.608;2024-02-14T05:39:47;9.10;99.90
23991;DHT22;12205;50.600;4.608;2024-02-14T05:42:13;9.00;99.90
23991;DHT22;12205;50.600;4.608;2024-02-14T05:44:41;9.10;99.90
23991;DHT22;12205;50.600;4.608;2024-02-14T05:47:08;9.20;99.90
23991;DHT22;12205;50.600;4.608;2024-02-14T05:49:37;9.20;99.90
23991;DHT22;12205;50.600;4.608;2024-02-14T05:52:06;9.20;99.90
23991;DHT22;12205;50.600;4.608;2024-02-14T05:54:34;9.20;99.90
23991;DHT22;12205;50.600;4.608;2024-02-14T05:57:01;9.30;99.90
23991;DHT22;12205;50.600;4.608;2024-02-14T05:59:28;9.30;99.90
23991;DHT22;12205;50.600;4.608;2024-02-14T06:01:56;9.30;99.90
23991;DHT22;12205;50.600;4.608;2024-02-14T06:04:23;9.30;99.90
23991;DHT22;12205;50.600;4.608;2024-02-14T06:06:50;9.30;99.90
23991;DHT22;12205;50.600;4.608;2024-02-14T06:09:18;9.30;99.90
23991;DHT22;12205;50.600;4.608;2024-02-14T06:11:45;9.30;99.90
23991;DHT22;12205;50.600;4.608;2024-02-14T06:14:12;9.30;99.90
23991;DHT22;12205;50.600;4.608;2024-02-14T06:16:39;9.30;99.90
23991;DHT22;12205;50.600;4.608;2024-02-14T06:19:06;9.40;99.90
23991;DHT22;12205;50.600;4.608;2024-02-14T06:21:33;9.40;99.90
23991;DHT22;12205;50.600;4.608;2024-02-14T06:24:00;9.40;99.90
23991;DHT22;12205;50.600;4.608;2024-02-14T06:26:28;9.40;99.90
23991;DHT22;12205;50.600;4.608;2024-02-14T06:28:55;9.40;99.90
23991;DHT22;12205;50.600;4.608;2024-02-14T06:31:22;9.50;99.90
23991;DHT22;12205;50.600;4.608;2024-02-14T06:33:49;9.50;99.90
23991;DHT22;12205;50.600;4.608;2024-02-14T06:36:16;9.50;99.90
23991;DHT22;12205;50.600;4.608;2024-02-14T06:38:43;9.50;99.90
23991;DHT22;12205;50.600;4.608;2024-02-14T06:41:11;9.50;99.90
23991;DHT22;12205;50.600;4.608;2024-02-14T06:43:40;9.50;99.90
23991;DHT22;12205;50.600;4.608;2024-02-14T06:46:07;9.60;99.90
23991;DHT22;12205;50.600;4.608;2024-02-14T06:48:34;9.60;99.90
23991;DHT22;12205;50.600;4.608;2024-02-14T06:51:01;9.60;99.90
23991;DHT22;12205;50.600;4.608;2024-02-14T06:53:28;9.60;99.90
23991;DHT22;12205;50.600;4.608;2024-02-14T06:55:56;9.60;99.90
23991;DHT22;12205;50.600;4.608;2024-02-14T06:58:23;9.60;99.90
23991;DHT22;12205;50.600;4.608;2024-02-14T07:00:51;9.60;99.90
23991;DHT22;12205;50.600;4.608;2024-02-14T07:03:18;9.60;99.90
23991;DHT22;12205;50.600;4.608;2024-02-14T07:05:45;9.70;99.90
23991;DHT22;12205;50.600;4.608;2024-02-14T07:08:12;9.70;99.90
23991;DHT22;12205;50.600;4.608;2024-02-14T07:10:40;9.70;99.90
23991;DHT22;12205;50.600;4.608;2024-02-14T07:13:07;9.70;99.90
23991;DHT22;12205;50.600;4.608;2024-02-14T07:15:33;9.70;99.90
23991;DHT22;12205;50.600;4.608;2024-02-14T07:18:02;9.70;99.90
23991;DHT22;12205;50.600;4.608;2024-02-14T07:20:29;9.70;99.90
23991;DHT22;12205;50.600;4.608;2024-02-14T07:22:56;9.80;99.90
23991;DHT22;12205;50.600;4.608;2024-02-14T07:25:23;9.80;99.90
23991;DHT22;12205;50.600;4.608;2024-02-14T07:27:50;9.80;99.90
23991;DHT22;12205;50.600;4.608;2024-02-14T07:30:17;9.80;99.90
23991;DHT22;12205;50.600;4.608;2024-02-14T07:32:44;9.80;99.90
23991;DHT22;12205;50.600;4.608;2024-02-14T07:35:13;9.80;99.90
23991;DHT22;12205;50.600;4.608;2024-02-14T07:37:39;9.80;99.90
23991;DHT22;12205;50.600;4.608;2024-02-14T07:40:08;9.70;99.90
23991;DHT22;12205;50.600;4.608;2024-02-14T07:42:35;9.70;99.90
23991;DHT22;12205;50.600;4.608;2024-02-14T07:45:03;9.70;99.90
23991;DHT22;12205;50.600;4.608;2024-02-14T07:47:30;9.80;99.90
23991;DHT22;12205;50.600;4.608;2024-02-14T07:49:57;9.80;99.90
23991;DHT22;12205;50.600;4.608;2024-02-14T07:52:25;9.80;99.90
23991;DHT22;12205;50.600;4.608;2024-02-14T07:54:52;9.90;99.90
23991;DHT22;12205;50.600;4.608;2024-02-14T07:57:21;9.80;99.90
23991;DHT22;12205;50.600;4.608;2024-02-14T07:59:48;9.80;99.90
23991;DHT22;12205;50.600;4.608;2024-02-14T08:02:15;9.90;99.90
23991;DHT22;12205;50.600;4.608;2024-02-14T08:04:42;9.90;99.90
23991;DHT22;12205;50.600;4.608;2024-02-14T08:07:09;9.90;99.90
23991;DHT22;12205;50.600;4.608;2024-02-14T08:09:37;9.80;99.90
23991;DHT22;12205;50.600;4.608;2024-02-14T08:12:06;9.80;99.90
23991;DHT22;12205;50.600;4.608;2024-02-14T08:14:33;9.80;99.90
23991;DHT22;12205;50.600;4.608;2024-02-14T08:17:00;9.70;99.90
23991;DHT22;12205;50.600;4.608;2024-02-14T08:19:26;9.70;99.90
23991;DHT22;12205;50.600;4.608;2024-02-14T08:21:53;9.70;99.90
23991;DHT22;12205;50.600;4.608;2024-02-14T08:24:25;9.80;99.90
23991;DHT22;12205;50.600;4.608;2024-02-14T08:26:53;9.70;99.90
23991;DHT22;12205;50.600;4.608;2024-02-14T08:29:20;9.80;99.90
23991;DHT22;12205;50.600;4.608;2024-02-14T08:31:48;9.80;99.90
23991;DHT22;12205;50.600;4.608;2024-02-14T08:34:15;9.90;99.90
23991;DHT22;12205;50.600;4.608;2024-02-14T08:36:42;9.90;99.90
23991;DHT22;12205;50.600;4.608;2024-02-14T08:39:09;9.90;99.90
23991;DHT22;12205;50.600;4.608;2024-02-14T08:41:36;9.90;99.90
23991;DHT22;12205;50.600;4.608;2024-02-14T08:44:05;9.90;99.90
23991;DHT22;12205;50.600;4.608;2024-02-14T08:46:32;9.80;99.90
23991;DHT22;12205;50.600;4.608;2024-02-14T08:49:00;9.80;99.90
23991;DHT22;12205;50.600;4.608;2024-02-14T08:51:27;9.70;99.90
23991;DHT22;12205;50.600;4.608;2024-02-14T08:53:54;9.70;99.90
23991;DHT22;12205;50.600;4.608;2024-02-14T08:56:25;9.70;99.90
23991;DHT22;12205;50.600;4.608;2024-02-14T08:58:53;9.80;99.90
23991;DHT22;12205;50.600;4.608;2024-02-14T09:01:21;9.80;99.90
23991;DHT22;12205;50.600;4.608;2024-02-14T09:03:48;9.80;99.90
23991;DHT22;12205;50.600;4.608;2024-02-14T09:06:16;9.80;99.90
23991;DHT22;12205;50.600;4.608;2024-02-14T09:08:44;9.80;99.90
23991;DHT22;12205;50.600;4.608;2024-02-14T09:11:11;9.90;99.90
23991;DHT22;12205;50.600;4.608;2024-02-14T09:13:38;9.90;99.90
23991;DHT22;12205;50.600;4.608;2024-02-14T09:16:07;9.90;99.90
23991;DHT22;12205;50.600;4.608;2024-02-14T09:18:36;10.00;99.90
23991;DHT22;12205;50.600;4.608;2024-02-14T09:21:03;10.00;99.90
23991;DHT22;12205;50.600;4.608;2024-02-14T09:23:31;10.00;99.90
23991;DHT22;12205;50.600;4.608;2024-02-14T09:25:58;10.10;99.90
23991;DHT22;12205;50.600;4.608;2024-02-14T09:28:25;10.10;99.90
23991;DHT22;12205;50.600;4.608;2024-02-14T09:30:52;10.10;99.90
23991;DHT22;12205;50.600;4.608;2024-02-14T09:33:20;10.00;99.90
23991;DHT22;12205;50.600;4.608;2024-02-14T09:35:48;10.10;99.90
23991;DHT22;12205;50.600;4.608;2024-02-14T09:38:17;10.10;99.90
23991;DHT22;12205;50.600;4.608;2024-02-14T09:40:44;10.10;99.90
23991;DHT22;12205;50.600;4.608;2024-02-14T09:43:20;10.20;99.90
23991;DHT22;12205;50.600;4.608;2024-02-14T09:45:50;10.20;99.90
23991;DHT22;12205;50.600;4.608;2024-02-14T09:48:19;10.10;99.90
23991;DHT22;12205;50.600;4.608;2024-02-14T09:50:48;10.20;99.90
23991;DHT22;12205;50.600;4.608;2024-02-14T09:53:16;10.20;99.90
23991;DHT22;12205;50.600;4.608;2024-02-14T09:55:45;10.20;99.90
23991;DHT22;12205;50.600;4.608;2024-02-14T09:58:13;10.20;99.90
23991;DHT22;12205;50.600;4.608;2024-02-14T10:00:40;10.30;99.90
23991;DHT22;12205;50.600;4.608;2024-02-14T10:03:08;10.30;99.90
23991;DHT22;12205;50.600;4.608;2024-02-14T10:05:35;10.30;99.90
23991;DHT22;12205;50.600;4.608;2024-02-14T10:08:04;10.40;99.90
23991;DHT22;12205;50.600;4.608;2024-02-14T10:10:32;10.40;99.90
23991;DHT22;12205;50.600;4.608;2024-02-14T10:13:00;10.40;99.90
23991;DHT22;12205;50.600;4.608;2024-02-14T10:15:27;10.40;99.90
23991;DHT22;12205;50.600;4.608;2024-02-14T10:17:55;10.40;99.90
23991;DHT22;12205;50.600;4.608;2024-02-14T10:20:23;10.40;99.90
23991;DHT22;12205;50.600;4.608;2024-02-14T10:22:50;10.40;99.90
23991;DHT22;12205;50.600;4.608;2024-02-14T10:25:17;10.50;99.90
23991;DHT22;12205;50.600;4.608;2024-02-14T10:27:45;10.40;99.90
23991;DHT22;12205;50.600;4.608;2024-02-14T10:30:15;10.40;99.90
23991;DHT22;12205;50.600;4.608;2024-02-14T10:32:42;10.40;99.90
23991;DHT22;12205;50.600;4.608;2024-02-14T10:35:13;10.30;99.90
23991;DHT22;12205;50.600;4.608;2024-02-14T10:37:40;10.40;99.90
23991;DHT22;12205;50.600;4.608;2024-02-14T10:40:08;10.40;99.90
23991;DHT22;12205;50.600;4.608;2024-02-14T10:42:37;10.40;99.90
23991;DHT22;12205;50.600;4.608;2024-02-14T10:45:04;10.40;99.90
23991;DHT22;12205;50.600;4.608;2024-02-14T10:47:35;10.30;99.90
23991;DHT22;12205;50.600;4.608;2024-02-14T10:50:04;10.30;99.90
23991;DHT22;12205;50.600;4.608;2024-02-14T10:52:33;10.30;99.90
23991;DHT22;12205;50.600;4.608;2024-02-14T10:55:03;10.30;99.90
23991;DHT22;12205;50.600;4.608;2024-02-14T10:57:30;10.40;99.90
23991;DHT22;12205;50.600;4.608;2024-02-14T11:00:02;10.40;99.90
23991;DHT22;12205;50.600;4.608;2024-02-14T11:02:30;10.40;99.90
23991;DHT22;12205;50.600;4.608;2024-02-14T11:04:58;10.40;99.90
23991;DHT22;12205;50.600;4.608;2024-02-14T11:07:27;10.40;99.90
23991;DHT22;12205;50.600;4.608;2024-02-14T11:10:04;10.50;99.90
23991;DHT22;12205;50.600;4.608;2024-02-14T11:12:33;10.40;99.90
23991;DHT22;12205;50.600;4.608;2024-02-14T11:15:09;10.50;99.90
23991;DHT22;12205;50.600;4.608;2024-02-14T11:17:37;10.40;99.90
23991;DHT22;12205;50.600;4.608;2024-02-14T11:20:18;10.50;99.90
23991;DHT22;12205;50.600;4.608;2024-02-14T11:22:54;10.50;99.90
23991;DHT22;12205;50.600;4.608;2024-02-14T11:25:23;10.50;99.90
23991;DHT22;12205;50.600;4.608;2024-02-14T11:27:55;10.60;99.90
23991;DHT22;12205;50.600;4.608;2024-02-14T11:30:31;10.60;99.90
23991;DHT22;12205;50.600;4.608;2024-02-14T11:33:14;10.70;99.90
23991;DHT22;12205;50.600;4.608;2024-02-14T11:35:42;10.70;99.90
23991;DHT22;12205;50.600;4.608;2024-02-14T11:38:09;10.60;99.90
23991;DHT22;12205;50.600;4.608;2024-02-14T11:40:36;10.60;99.90
23991;DHT22;12205;50.600;4.608;2024-02-14T11:43:04;10.70;99.90
23991;DHT22;12205;50.600;4.608;2024-02-14T11:45:33;10.70;99.90
23991;DHT22;12205;50.600;4.608;2024-02-14T11:48:00;10.70;99.90
23991;DHT22;12205;50.600;4.608;2024-02-14T11:50:27;10.80;99.90
23991;DHT22;12205;50.600;4.608;2024-02-14T11:52:55;10.70;99.90
23991;DHT22;12205;50.600;4.608;2024-02-14T11:55:27;10.90;99.90
23991;DHT22;12205;50.600;4.608;2024-02-14T11:57:55;10.90;99.90
23991;DHT22;12205;50.600;4.608;2024-02-14T12:00:22;10.90;99.90
23991;DHT22;12205;50.600;4.608;2024-02-14T12:02:51;10.90;99.90
23991;DHT22;12205;50.600;4.608;2024-02-14T12:05:19;11.00;99.90
23991;DHT22;12205;50.600;4.608;2024-02-14T12:07:46;11.00;99.90
23991;DHT22;12205;50.600;4.608;2024-02-14T12:10:13;11.10;99.90
23991;DHT22;12205;50.600;4.608;2024-02-14T12:12:40;11.00;99.90
23991;DHT22;12205;50.600;4.608;2024-02-14T12:15:10;10.90;99.90
23991;DHT22;12205;50.600;4.608;2024-02-14T12:17:36;11.00;99.90
23991;DHT22;12205;50.600;4.608;2024-02-14T12:20:10;11.10;99.90
23991;DHT22;12205;50.600;4.608;2024-02-14T12:22:39;11.10;99.90
23991;DHT22;12205;50.600;4.608;2024-02-14T12:25:07;11.10;99.90
23991;DHT22;12205;50.600;4.608;2024-02-14T12:27:37;11.10;99.90
23991;DHT22;12205;50.600;4.608;2024-02-14T12:30:06;11.20;99.90
23991;DHT22;12205;50.600;4.608;2024-02-14T12:32:33;11.30;99.90
23991;DHT22;12205;50.600;4.608;2024-02-14T12:35:00;11.20;99.90
23991;DHT22;12205;50.600;4.608;2024-02-14T12:37:28;11.20;99.90
23991;DHT22;12205;50.600;4.608;2024-02-14T12:39:56;11.20;99.90
23991;DHT22;12205;50.600;4.608;2024-02-14T12:42:22;11.30;99.90
23991;DHT22;12205;50.600;4.608;2024-02-14T12:44:52;11.30;99.90
23991;DHT22;12205;50.600;4.608;2024-02-14T12:47:19;11.20;99.90
23991;DHT22;12205;50.600;4.608;2024-02-14T12:49:47;11.30;99.90
23991;DHT22;12205;50.600;4.608;2024-02-14T12:52:15;11.20;99.90
23991;DHT22;12205;50.600;4.608;2024-02-14T12:54:44;11.30;99.90
23991;DHT22;12205;50.600;4.608;2024-02-14T12:57:14;11.30;99.90
23991;DHT22;12205;50.600;4.608;2024-02-14T12:59:41;11.40;99.90
23991;DHT22;12205;50.600;4.608;2024-02-14T13:02:08;11.40;99.90
23991;DHT22;12205;50.600;4.608;2024-02-14T13:04:35;11.30;99.90
23991;DHT22;12205;50.600;4.608;2024-02-14T13:07:03;11.30;99.90
23991;DHT22;12205;50.600;4.608;2024-02-14T13:09:30;11.30;99.90
23991;DHT22;12205;50.600;4.608;2024-02-14T13:11:58;11.40;99.90
23991;DHT22;12205;50.600;4.608;2024-02-14T13:14:25;11.30;99.90
23991;DHT22;12205;50.600;4.608;2024-02-14T13:16:52;11.30;99.90
23991;DHT22;12205;50.600;4.608;2024-02-14T13:19:19;11.30;99.90
23991;DHT22;12205;50.600;4.608;2024-02-14T13:21:46;11.30;99.90
23991;DHT22;12205;50.600;4.608;2024-02-14T13:24:13;11.30;99.90
23991;DHT22;12205;50.600;4.608;2024-02-14T13:26:40;11.30;99.90
23991;DHT22;12205;50.600;4.608;2024-02-14T13:29:08;11.30;99.90
23991;DHT22;12205;50.600;4.608;2024-02-14T13:31:35;11.30;99.90
23991;DHT22;12205;50.600;4.608;2024-02-14T13:34:02;11.30;99.90
23991;DHT22;12205;50.600;4.608;2024-02-14T13:36:30;11.30;99.90
23991;DHT22;12205;50.600;4.608;2024-02-14T13:38:58;11.30;99.90
23991;DHT22;12205;50.600;4.608;2024-02-14T13:41:26;11.40;99.90
23991;DHT22;12205;50.600;4.608;2024-02-14T13:43:53;11.40;99.90
23991;DHT22;12205;50.600;4.608;2024-02-14T13:46:21;11.40;99.90
23991;DHT22;12205;50.600;4.608;2024-02-14T13:48:51;11.40;99.90
23991;DHT22;12205;50.600;4.608;2024-02-14T13:51:18;11.40;99.90
23991;DHT22;12205;50.600;4.608;2024-02-14T13:53:45;11.40;99.90
23991;DHT22;12205;50.600;4.608;2024-02-14T13:56:12;11.40;99.90
23991;DHT22;12205;50.600;4.608;2024-02-14T13:58:41;11.40;99.90
23991;DHT22;12205;50.600;4.608;2024-02-14T14:01:10;11.40;99.90
23991;DHT22;12205;50.600;4.608;2024-02-14T14:03:38;11.40;99.90
23991;DHT22;12205;50.600;4.608;2024-02-14T14:06:06;11.40;99.90
23991;DHT22;12205;50.600;4.608;2024-02-14T14:08:35;11.40;99.90
23991;DHT22;12205;50.600;4.608;2024-02-14T14:11:02;11.50;99.90
23991;DHT22;12205;50.600;4.608;2024-02-14T14:13:30;11.50;99.90
23991;DHT22;12205;50.600;4.608;2024-02-14T14:15:59;11.50;99.90
23991;DHT22;12205;50.600;4.608;2024-02-14T14:18:26;11.50;99.90
23991;DHT22;12205;50.600;4.608;2024-02-14T14:20:54;11.50;99.90
23991;DHT22;12205;50.600;4.608;2024-02-14T14:23:21;11.50;99.90
23991;DHT22;12205;50.600;4.608;2024-02-14T14:25:48;11.60;99.90
23991;DHT22;12205;50.600;4.608;2024-02-14T14:28:15;11.60;99.90
23991;DHT22;12205;50.600;4.608;2024-02-14T14:30:43;11.60;99.90
23991;DHT22;12205;50.600;4.608;2024-02-14T14:33:10;11.60;99.90
23991;DHT22;12205;50.600;4.608;2024-02-14T14:35:37;11.60;99.90
23991;DHT22;12205;50.600;4.608;2024-02-14T14:38:06;11.60;99.90
23991;DHT22;12205;50.600;4.608;2024-02-14T14:40:33;11.60;99.90
23991;DHT22;12205;50.600;4.608;2024-02-14T14:43:00;11.70;99.90
23991;DHT22;12205;50.600;4.608;2024-02-14T14:45:27;11.70;99.90
23991;DHT22;12205;50.600;4.608;2024-02-14T14:47:54;11.70;99.90
23991;DHT22;12205;50.600;4.608;2024-02-14T14:50:21;11.70;99.90
23991;DHT22;12205;50.600;4.608;2024-02-14T14:52:50;11.70;99.90
23991;DHT22;12205;50.600;4.608;2024-02-14T14:55:19;11.70;99.90
23991;DHT22;12205;50.600;4.608;2024-02-14T14:57:46;11.70;99.90
23991;DHT22;12205;50.600;4.608;2024-02-14T15:00:13;11.70;99.90
23991;DHT22;12205;50.600;4.608;2024-02-14T15:02:41;11.70;99.90
23991;DHT22;12205;50.600;4.608;2024-02-14T15:05:09;11.80;99.90
23991;DHT22;12205;50.600;4.608;2024-02-14T15:07:36;11.80;99.90
23991;DHT22;12205;50.600;4.608;2024-02-14T15:10:04;11.80;99.90
23991;DHT22;12205;50.600;4.608;2024-02-14T15:12:34;11.90;99.90
23991;DHT22;12205;50.600;4.608;2024-02-14T15:15:02;11.80;99.90
23991;DHT22;12205;50.600;4.608;2024-02-14T15:17:29;11.80;99.90
23991;DHT22;12205;50.600;4.608;2024-02-14T15:19:56;11.80;99.90
23991;DHT22;12205;50.600;4.608;2024-02-14T15:22:24;11.80;99.90
23991;DHT22;12205;50.600;4.608;2024-02-14T15:24:53;11.80;99.90
23991;DHT22;12205;50.600;4.608;2024-02-14T15:27:20;11.80;99.90
23991;DHT22;12205;50.600;4.608;2024-02-14T15:29:51;11.80;99.90
23991;DHT22;12205;50.600;4.608;2024-02-14T15:32:35;11.80;99.90
23991;DHT22;12205;50.600;4.608;2024-02-14T15:35:20;11.90;99.90
23991;DHT22;12205;50.600;4.608;2024-02-14T15:37:47;11.80;99.90
23991;DHT22;12205;50.600;4.608;2024-02-14T15:40:15;11.90;99.90
23991;DHT22;12205;50.600;4.608;2024-02-14T15:42:43;11.90;99.90
23991;DHT22;12205;50.600;4.608;2024-02-14T15:45:11;11.90;99.90